Wilson Lisbon — 5BNU3 — position and weather

sailwx.info

Track history (hours):
 
Tides and Currents Weather Stations Pressure Air Temp Water Temp Dewpoint Dewpoint Depression Visibility Wind Speed Wind Dir Waves Ship Positions

Wilson Lisbon

Last reported at 2015-Aug-02 07:23 UTC. Time now 2015-Aug-02 08:20 UTC.
Position N 55°39' E 007°21'.

Length 90 m; draft 5.3 m.

Type: Ship. MMSI: 212376000.

Date/timePositionNaut miles runAvg speedWind from/ knotsBaromVisibWave heightAir tempDewpointWater temp
2015-Aug-02 07:23N 55°39' E 007°21'8 8.6
2015-Aug-02 06:26N 55°31' E 007°22'8 8.8
2015-Aug-02 05:32N 55°23' E 007°23'8 8.6
2015-Aug-02 04:33N 55°15' E 007°24'9 8.9
2015-Aug-02 03:34N 55°06' E 007°25'9 8.9
2015-Aug-02 02:34N 54°57' E 007°26'9 9.0
2015-Aug-02 01:33N 54°48' E 007°27'9 8.7
2015-Aug-02 00:33N 54°39' E 007°28'8 8.3
2015-Aug-01 23:33N 54°31' E 007°29'8 8.1
2015-Aug-01 22:34N 54°23' E 007°31'8 7.5
2015-Aug-01 21:32N 54°16' E 007°35'7 6.7
2015-Aug-01 20:33N 54°10' E 007°41'7 7.4
2015-Aug-01 19:33N 54°05' E 007°51'8 8.5
2015-Aug-01 18:34N 54°02' E 008°04'1110.6
2015-Aug-01 17:34N 54°00' E 008°22'1312.7
2015-Aug-01 16:33N 53°55' E 008°41'1111.3
2015-Aug-01 15:33N 53°51' E 008°60'25 7.4
2015-Aug-01 12:14N 53°37' E 009°33'5 7.4
2015-Aug-01 11:33N 53°34' E 009°40'9 9.4
2015-Aug-01 10:33N 53°32' E 009°56'2 2.3
2015-Aug-01 09:33N 53°30' E 009°57'0 0.0
2015-Aug-01 08:31N 53°30' E 009°57'0 0.0
2015-Aug-01 07:31N 53°30' E 009°57'0 0.0
2015-Aug-01 06:33N 53°30' E 009°57'0 0.0
2015-Aug-01 05:31N 53°30' E 009°57'0 0.0
2015-Aug-01 04:27N 53°30' E 009°57'0 0.0
2015-Aug-01 03:31N 53°30' E 009°57'0 0.0
2015-Aug-01 02:31N 53°30' E 009°57'0 0.0
2015-Aug-01 01:33N 53°30' E 009°57'0 0.0
2015-Aug-01 00:30N 53°30' E 009°57'0 0.0
2015-Jul-31 23:33N 53°30' E 009°57'3 2.6
2015-Jul-31 22:33N 53°32' E 009°55'9 8.7
2015-Jul-31 21:33N 53°34' E 009°41'19 9.0
2015-Jul-31 19:24N 53°50' E 009°21'7 8.3
2015-Jul-31 18:33N 53°53' E 009°10'8 7.8
2015-Jul-31 17:33N 53°51' E 008°58'7 7.1
2015-Jul-31 16:33N 53°51' E 008°46'7 7.3
2015-Jul-31 15:33N 53°57' E 008°38'8 8.5
2015-Jul-31 14:33N 53°59' E 008°24'9 9.2
2015-Jul-31 13:32N 53°59' E 008°09'9 9.5
2015-Jul-31 12:33N 53°54' E 007°55'8 8.2
2015-Jul-31 11:33N 53°50' E 008°06'1010.2
2015-Jul-31 10:33N 53°43' E 008°19'9 9.2
2015-Jul-31 09:33N 53°36' E 008°30'5 5.1
2015-Jul-31 08:33N 53°31' E 008°33'0 0.0
2015-Jul-31 07:33N 53°31' E 008°33'0 0.0
2015-Jul-31 06:33N 53°31' E 008°33'0 0.0
2015-Jul-31 05:33N 53°31' E 008°33'0 0.0
2015-Jul-31 04:33N 53°31' E 008°33'0 0.0
2015-Jul-31 03:33N 53°31' E 008°33'0 0.0
2015-Jul-31 02:33N 53°31' E 008°33'0 0.0
2015-Jul-31 01:33N 53°31' E 008°33'0 0.0
2015-Jul-31 00:33N 53°31' E 008°33'0 0.0
2015-Jul-30 23:33N 53°31' E 008°33'0 0.0
2015-Jul-30 22:33N 53°31' E 008°33'0 0.0
2015-Jul-30 21:33N 53°31' E 008°33'1 1.0
2015-Jul-30 20:34N 53°32' E 008°34'7 7.4
2015-Jul-30 19:33N 53°38' E 008°26'8 7.9
2015-Jul-30 18:33N 53°43' E 008°16'8 8.1
2015-Jul-30 17:33N 53°49' E 008°06'8 7.8
2015-Jul-30 16:33N 53°52' E 007°54'5 4.9
2015-Jul-30 15:33N 53°55' E 007°47'0 0.0
2015-Jul-30 14:30N 53°55' E 007°47'0 0.0
2015-Jul-30 13:17N 53°55' E 007°47'0 0.0
2015-Jul-30 12:27N 53°55' E 007°47'0 0.0
2015-Jul-30 11:27N 53°55' E 007°47'0 0.0
2015-Jul-30 10:33N 53°55' E 007°47'0 0.0
2015-Jul-30 09:33N 53°55' E 007°47'0 0.0
2015-Jul-30 08:33N 53°55' E 007°47'0 0.0
2015-Jul-30 07:18N 53°55' E 007°47'0 0.0
2015-Jul-30 06:27N 53°55' E 007°47'0 0.0
2015-Jul-30 05:33N 53°55' E 007°47'0 0.0
2015-Jul-30 04:17N 53°55' E 007°47'0 0.0
2015-Jul-30 03:27N 53°55' E 007°47'0 0.0
2015-Jul-30 02:33N 53°55' E 007°47'0 0.0
2015-Jul-30 01:33N 53°55' E 007°47'0 0.0
2015-Jul-30 00:33N 53°55' E 007°47'0 0.0
2015-Jul-29 23:33N 53°55' E 007°47'0 0.0
2015-Jul-29 22:33N 53°55' E 007°47'0 0.0
2015-Jul-29 21:18N 53°55' E 007°47'0 0.0
2015-Jul-29 20:30N 53°55' E 007°47'0 0.0
2015-Jul-29 19:33N 53°55' E 007°47'0 0.0
2015-Jul-29 18:30N 53°55' E 007°47'0 0.0
2015-Jul-29 17:30N 53°55' E 007°47'0 0.0
2015-Jul-29 16:33N 53°55' E 007°47'0 0.0
2015-Jul-29 15:24N 53°55' E 007°47'0 0.0
2015-Jul-29 14:31N 53°55' E 007°47'0 0.0
2015-Jul-29 13:30N 53°55' E 007°47'0 0.0
2015-Jul-29 12:30N 53°55' E 007°47'0 0.0
2015-Jul-29 11:30N 53°55' E 007°47'0 0.0
2015-Jul-29 10:30N 53°55' E 007°47'0 0.0
2015-Jul-29 09:17N 53°55' E 007°47'0 0.0
2015-Jul-29 08:17N 53°55' E 007°47'0 0.0
2015-Jul-29 07:03N 53°55' E 007°47'0 0.0
2015-Jul-29 06:06N 53°55' E 007°47'0 0.0
2015-Jul-29 05:27N 53°55' E 007°47'0 0.0
2015-Jul-29 04:27N 53°55' E 007°47'0 0.0
2015-Jul-29 03:27N 53°55' E 007°47'0 0.0
2015-Jul-29 02:33N 53°55' E 007°47'0 0.0
2015-Jul-29 01:30N 53°55' E 007°47'0 0.0
2015-Jul-29 00:27N 53°55' E 007°47'0 0.0
2015-Jul-28 23:30N 53°55' E 007°47'0 0.0
2015-Jul-28 22:30N 53°55' E 007°47'0 0.1
2015-Jul-28 21:30N 53°55' E 007°47'0 0.0
2015-Jul-28 20:24N 53°55' E 007°47'0 0.0
2015-Jul-28 19:27N 53°55' E 007°47'0 0.0
2015-Jul-28 18:33N 53°55' E 007°47'0 0.2
2015-Jul-28 16:33N 53°54' E 007°46'8 7.6
2015-Jul-28 15:33N 53°59' E 007°36'7 7.5
2015-Jul-28 14:33N 54°06' E 007°30'7 7.0
2015-Jul-28 13:33N 54°12' E 007°25'7 6.7
2015-Jul-28 12:33N 54°18' E 007°19'6 6.3
2015-Jul-28 11:33N 54°23' E 007°13'6 6.1
2015-Jul-28 10:33N 54°28' E 007°07'6 5.7
2015-Jul-28 09:33N 54°33' E 007°02'213 7.3
2015-Jul-27 04:33N 58°04' E 006°14'8 7.9
2015-Jul-27 03:33N 58°12' E 006°14'7 6.9
2015-Jul-27 02:33N 58°19' E 006°18'1 0.0
2015-Jul-25 18:20N 58°19' E 006°20'6 7.2
2015-Jul-25 17:34N 58°13' E 006°17'10 9.6
2015-Jul-25 16:33N 58°05' E 006°27'89 8.6
2015-Jul-25 06:15N 57°51' E 009°12'6 8.3
2015-Jul-25 05:34N 57°52' E 009°23'8 8.2
2015-Jul-25 04:34N 57°52' E 009°39'8 8.5
2015-Jul-25 03:33N 57°53' E 009°55'8 8.2
2015-Jul-25 02:33N 57°54' E 010°10'8 8.3
2015-Jul-25 01:33N 57°53' E 010°25'8 8.2
2015-Jul-25 00:34N 57°53' E 010°41'7 7.4
2015-Jul-24 23:33N 57°53' E 010°55'7 7.1
2015-Jul-24 22:33N 57°52' E 011°08'8 8.0
2015-Jul-24 21:34N 57°51' E 011°23'1010.2
2015-Jul-24 20:34N 57°56' E 011°40'1110.7
2015-Jul-24 19:34N 58°06' E 011°48'1110.5
2015-Jul-24 18:31N 58°17' E 011°49'5 0.4
2015-Jul-24 07:31N 58°21' E 011°54'0 0.0
2015-Jul-24 06:07N 58°21' E 011°54'1 1.1
2015-Jul-24 05:32N 58°20' E 011°53'9 8.9
2015-Jul-24 04:33N 58°12' E 011°51'1010.5
2015-Jul-24 03:33N 58°01' E 011°47'1110.6
2015-Jul-24 02:33N 57°54' E 011°32'8 8.1
2015-Jul-24 01:33N 57°51' E 011°19'8 7.5
2015-Jul-24 00:33N 57°51' E 011°05'8 8.4
2015-Jul-23 23:33N 57°52' E 010°49'8 8.2
2015-Jul-23 22:33N 57°50' E 010°34'100 8.8
2015-Jul-23 11:18N 56°58' E 007°57'810.1
2015-Jul-23 10:33N 56°51' E 007°50'1110.7
2015-Jul-23 09:32N 56°42' E 007°40'  
Track history (hours):
 
Tides and Currents Weather Stations Pressure Air Temp Water Temp Dewpoint Dewpoint Depression Visibility Wind Speed Wind Dir Waves Ship Positions

Wilson Lisbon

Last reported at 2015-Aug-02 07:23 UTC. Time now 2015-Aug-02 08:20 UTC.
Position N 55°39' E 007°21'.

Length 90 m; draft 5.3 m.

Type: Ship. MMSI: 212376000.

Date/timePositionNaut miles runAvg speedWind from/ knotsBaromVisibWave heightAir tempDewpointWater temp
2015-Aug-02 07:23N 55°39' E 007°21'8 8.6
2015-Aug-02 06:26N 55°31' E 007°22'8 8.8
2015-Aug-02 05:32N 55°23' E 007°23'8 8.6
2015-Aug-02 04:33N 55°15' E 007°24'9 8.9
2015-Aug-02 03:34N 55°06' E 007°25'9 8.9
2015-Aug-02 02:34N 54°57' E 007°26'9 9.0
2015-Aug-02 01:33N 54°48' E 007°27'9 8.7
2015-Aug-02 00:33N 54°39' E 007°28'8 8.3
2015-Aug-01 23:33N 54°31' E 007°29'8 8.1
2015-Aug-01 22:34N 54°23' E 007°31'8 7.5
2015-Aug-01 21:32N 54°16' E 007°35'7 6.7
2015-Aug-01 20:33N 54°10' E 007°41'7 7.4
2015-Aug-01 19:33N 54°05' E 007°51'8 8.5
2015-Aug-01 18:34N 54°02' E 008°04'1110.6
2015-Aug-01 17:34N 54°00' E 008°22'1312.7
2015-Aug-01 16:33N 53°55' E 008°41'1111.3
2015-Aug-01 15:33N 53°51' E 008°60'25 7.4
2015-Aug-01 12:14N 53°37' E 009°33'5 7.4
2015-Aug-01 11:33N 53°34' E 009°40'9 9.4
2015-Aug-01 10:33N 53°32' E 009°56'2 2.3
2015-Aug-01 09:33N 53°30' E 009°57'0 0.0
2015-Aug-01 08:31N 53°30' E 009°57'0 0.0
2015-Aug-01 07:31N 53°30' E 009°57'0 0.0
2015-Aug-01 06:33N 53°30' E 009°57'0 0.0
2015-Aug-01 05:31N 53°30' E 009°57'0 0.0
2015-Aug-01 04:27N 53°30' E 009°57'0 0.0
2015-Aug-01 03:31N 53°30' E 009°57'0 0.0
2015-Aug-01 02:31N 53°30' E 009°57'0 0.0
2015-Aug-01 01:33N 53°30' E 009°57'0 0.0
2015-Aug-01 00:30N 53°30' E 009°57'0 0.0
2015-Jul-31 23:33N 53°30' E 009°57'3 2.6
2015-Jul-31 22:33N 53°32' E 009°55'9 8.7
2015-Jul-31 21:33N 53°34' E 009°41'19 9.0
2015-Jul-31 19:24N 53°50' E 009°21'7 8.3
2015-Jul-31 18:33N 53°53' E 009°10'8 7.8
2015-Jul-31 17:33N 53°51' E 008°58'7 7.1
2015-Jul-31 16:33N 53°51' E 008°46'7 7.3
2015-Jul-31 15:33N 53°57' E 008°38'8 8.5
2015-Jul-31 14:33N 53°59' E 008°24'9 9.2
2015-Jul-31 13:32N 53°59' E 008°09'9 9.5
2015-Jul-31 12:33N 53°54' E 007°55'8 8.2
2015-Jul-31 11:33N 53°50' E 008°06'1010.2
2015-Jul-31 10:33N 53°43' E 008°19'9 9.2
2015-Jul-31 09:33N 53°36' E 008°30'5 5.1
2015-Jul-31 08:33N 53°31' E 008°33'0 0.0
2015-Jul-31 07:33N 53°31' E 008°33'0 0.0
2015-Jul-31 06:33N 53°31' E 008°33'0 0.0
2015-Jul-31 05:33N 53°31' E 008°33'0 0.0
2015-Jul-31 04:33N 53°31' E 008°33'0 0.0
2015-Jul-31 03:33N 53°31' E 008°33'0 0.0
2015-Jul-31 02:33N 53°31' E 008°33'0 0.0
2015-Jul-31 01:33N 53°31' E 008°33'0 0.0
2015-Jul-31 00:33N 53°31' E 008°33'0 0.0
2015-Jul-30 23:33N 53°31' E 008°33'0 0.0
2015-Jul-30 22:33N 53°31' E 008°33'0 0.0
2015-Jul-30 21:33N 53°31' E 008°33'1 1.0
2015-Jul-30 20:34N 53°32' E 008°34'7 7.4
2015-Jul-30 19:33N 53°38' E 008°26'8 7.9
2015-Jul-30 18:33N 53°43' E 008°16'8 8.1
2015-Jul-30 17:33N 53°49' E 008°06'8 7.8
2015-Jul-30 16:33N 53°52' E 007°54'5 4.9
2015-Jul-30 15:33N 53°55' E 007°47'0 0.0
2015-Jul-30 14:30N 53°55' E 007°47'0 0.0
2015-Jul-30 13:17N 53°55' E 007°47'0 0.0
2015-Jul-30 12:27N 53°55' E 007°47'0 0.0
2015-Jul-30 11:27N 53°55' E 007°47'0 0.0
2015-Jul-30 10:33N 53°55' E 007°47'0 0.0
2015-Jul-30 09:33N 53°55' E 007°47'0 0.0
2015-Jul-30 08:33N 53°55' E 007°47'0 0.0
2015-Jul-30 07:18N 53°55' E 007°47'0 0.0
2015-Jul-30 06:27N 53°55' E 007°47'0 0.0
2015-Jul-30 05:33N 53°55' E 007°47'0 0.0
2015-Jul-30 04:17N 53°55' E 007°47'0 0.0
2015-Jul-30 03:27N 53°55' E 007°47'0 0.0
2015-Jul-30 02:33N 53°55' E 007°47'0 0.0
2015-Jul-30 01:33N 53°55' E 007°47'0 0.0
2015-Jul-30 00:33N 53°55' E 007°47'0 0.0
2015-Jul-29 23:33N 53°55' E 007°47'0 0.0
2015-Jul-29 22:33N 53°55' E 007°47'0 0.0
2015-Jul-29 21:18N 53°55' E 007°47'0 0.0
2015-Jul-29 20:30N 53°55' E 007°47'0 0.0
2015-Jul-29 19:33N 53°55' E 007°47'0 0.0
2015-Jul-29 18:30N 53°55' E 007°47'0 0.0
2015-Jul-29 17:30N 53°55' E 007°47'0 0.0
2015-Jul-29 16:33N 53°55' E 007°47'0 0.0
2015-Jul-29 15:24N 53°55' E 007°47'0 0.0
2015-Jul-29 14:31N 53°55' E 007°47'0 0.0
2015-Jul-29 13:30N 53°55' E 007°47'0 0.0
2015-Jul-29 12:30N 53°55' E 007°47'0 0.0
2015-Jul-29 11:30N 53°55' E 007°47'0 0.0
2015-Jul-29 10:30N 53°55' E 007°47'0 0.0
2015-Jul-29 09:17N 53°55' E 007°47'0 0.0
2015-Jul-29 08:17N 53°55' E 007°47'0 0.0
2015-Jul-29 07:03N 53°55' E 007°47'0 0.0
2015-Jul-29 06:06N 53°55' E 007°47'0 0.0
2015-Jul-29 05:27N 53°55' E 007°47'0 0.0
2015-Jul-29 04:27N 53°55' E 007°47'0 0.0
2015-Jul-29 03:27N 53°55' E 007°47'0 0.0
2015-Jul-29 02:33N 53°55' E 007°47'0 0.0
2015-Jul-29 01:30N 53°55' E 007°47'0 0.0
2015-Jul-29 00:27N 53°55' E 007°47'0 0.0
2015-Jul-28 23:30N 53°55' E 007°47'0 0.0
2015-Jul-28 22:30N 53°55' E 007°47'0 0.1
2015-Jul-28 21:30N 53°55' E 007°47'0 0.0
2015-Jul-28 20:24N 53°55' E 007°47'0 0.0
2015-Jul-28 19:27N 53°55' E 007°47'0 0.0
2015-Jul-28 18:33N 53°55' E 007°47'0 0.2
2015-Jul-28 16:33N 53°54' E 007°46'8 7.6
2015-Jul-28 15:33N 53°59' E 007°36'7 7.5
2015-Jul-28 14:33N 54°06' E 007°30'7 7.0
2015-Jul-28 13:33N 54°12' E 007°25'7 6.7
2015-Jul-28 12:33N 54°18' E 007°19'6 6.3
2015-Jul-28 11:33N 54°23' E 007°13'6 6.1
2015-Jul-28 10:33N 54°28' E 007°07'6 5.7
2015-Jul-28 09:33N 54°33' E 007°02'213 7.3
2015-Jul-27 04:33N 58°04' E 006°14'8 7.9
2015-Jul-27 03:33N 58°12' E 006°14'7 6.9
2015-Jul-27 02:33N 58°19' E 006°18'1 0.0
2015-Jul-25 18:20N 58°19' E 006°20'6 7.2
2015-Jul-25 17:34N 58°13' E 006°17'10 9.6
2015-Jul-25 16:33N 58°05' E 006°27'89 8.6
2015-Jul-25 06:15N 57°51' E 009°12'6 8.3
2015-Jul-25 05:34N 57°52' E 009°23'8 8.2
2015-Jul-25 04:34N 57°52' E 009°39'8 8.5
2015-Jul-25 03:33N 57°53' E 009°55'8 8.2
2015-Jul-25 02:33N 57°54' E 010°10'8 8.3
2015-Jul-25 01:33N 57°53' E 010°25'8 8.2
2015-Jul-25 00:34N 57°53' E 010°41'7 7.4
2015-Jul-24 23:33N 57°53' E 010°55'7 7.1
2015-Jul-24 22:33N 57°52' E 011°08'8 8.0
2015-Jul-24 21:34N 57°51' E 011°23'1010.2
2015-Jul-24 20:34N 57°56' E 011°40'1110.7
2015-Jul-24 19:34N 58°06' E 011°48'1110.5
2015-Jul-24 18:31N 58°17' E 011°49'5 0.4
2015-Jul-24 07:31N 58°21' E 011°54'0 0.0
2015-Jul-24 06:07N 58°21' E 011°54'1 1.1
2015-Jul-24 05:32N 58°20' E 011°53'9 8.9
2015-Jul-24 04:33N 58°12' E 011°51'1010.5
2015-Jul-24 03:33N 58°01' E 011°47'1110.6
2015-Jul-24 02:33N 57°54' E 011°32'8 8.1
2015-Jul-24 01:33N 57°51' E 011°19'8 7.5
2015-Jul-24 00:33N 57°51' E 011°05'8 8.4
2015-Jul-23 23:33N 57°52' E 010°49'8 8.2
2015-Jul-23 22:33N 57°50' E 010°34'100 8.8
2015-Jul-23 11:18N 56°58' E 007°57'810.1
2015-Jul-23 10:33N 56°51' E 007°50'1110.7
2015-Jul-23 09:32N 56°42' E 007°40'  

Dump ship's entire track history